createdAt,value
2022-12-25T22:17:32.698Z,0.15
2022-12-25T22:19:59.744Z,0.08
2022-12-25T22:22:29.291Z,0.09
2022-12-25T22:24:59.847Z,0.10
2022-12-25T22:27:31.431Z,0.23
2022-12-25T22:29:58.806Z,0.21
2022-12-25T22:32:25.629Z,0.18
2022-12-25T22:34:52.491Z,0.14
2022-12-25T22:37:19.381Z,0.19
2022-12-25T22:39:46.175Z,0.20
2022-12-25T22:42:13.672Z,0.18
2022-12-25T22:44:40.447Z,0.14
2022-12-25T22:47:07.204Z,0.11
2022-12-25T22:49:34.043Z,0.07
2022-12-25T22:52:00.832Z,0.06
2022-12-25T22:54:29.933Z,0.09
2022-12-25T22:56:57.787Z,0.12
2022-12-25T22:59:24.591Z,0.15
2022-12-25T23:01:51.541Z,0.13
2022-12-25T23:04:20.783Z,0.11
2022-12-25T23:06:47.869Z,0.25
2022-12-25T23:09:23.985Z,0.39
2022-12-25T23:11:51.428Z,0.46
2022-12-25T23:14:36.956Z,0.47
2022-12-25T23:17:03.782Z,0.46
2022-12-25T23:19:49.313Z,0.41
2022-12-25T23:22:34.958Z,0.34
2022-12-25T23:25:20.125Z,0.24
2022-12-25T23:27:46.886Z,0.20
2022-12-25T23:30:16.724Z,0.16
2022-12-25T23:32:44.406Z,0.12
2022-12-25T23:35:12.939Z,0.03
2022-12-25T23:37:39.751Z,-0.04
2022-12-25T23:40:09.451Z,-0.07
2022-12-25T23:42:36.207Z,-0.15
2022-12-25T23:45:02.986Z,-0.18
2022-12-25T23:47:29.906Z,-0.21
2022-12-25T23:49:56.717Z,-0.25
2022-12-25T23:52:23.440Z,-0.26
2022-12-25T23:54:50.142Z,-0.28
2022-12-25T23:57:16.963Z,-0.26
2022-12-25T23:59:43.691Z,-0.20
